Time;durP1;ratioP1;P1;durP2;ratioP2;P2;SDS_P1;SDS_P2;PMS_P1;PMS_P2;Temp;Humidity;BMP_temperature;BMP_pressure;BME280_temperature;BME280_humidity;BME280_pressure;Samples;Min_cycle;Max_cycle;Signal;HPM_P1;HPM_P2
2023/08/31 00:02:19;;;;;;;6.93;4.70;;;;;;;;;;4991678;28;20411;-72
2023/08/31 00:04:45;;;;;;;6.40;4.43;;;;;;;;;;4993307;28;20451;-72
2023/08/31 00:07:11;;;;;;;6.40;4.60;;;;;;;;;;4991718;28;20460;-73
2023/08/31 00:09:37;;;;;;;4.63;4.40;;;;;;;;;;4994063;28;20436;-72
2023/08/31 00:12:03;;;;;;;5.27;4.83;;;;;;;;;;4989854;28;20979;-72
2023/08/31 00:14:29;;;;;;;6.37;5.83;;;;;;;;;;4989495;28;20458;-72
2023/08/31 00:16:57;;;;;;;5.90;5.37;;;;;;;;;;4999211;28;20430;-72
2023/08/31 00:19:23;;;;;;;7.67;6.53;;;;;;;;;;5000099;28;20862;-72
2023/08/31 00:21:49;;;;;;;5.23;4.93;;;;;;;;;;4989179;28;20652;-72
2023/08/31 00:24:15;;;;;;;5.83;5.30;;;;;;;;;;4995826;28;20494;-73
2023/08/31 00:26:42;;;;;;;5.40;3.87;;;;;;;;;;5006481;28;20542;-72
2023/08/31 00:29:11;;;;;;;4.73;4.37;;;;;;;;;;4994341;28;20781;-73
2023/08/31 00:31:37;;;;;;;5.23;4.90;;;;;;;;;;4985216;28;20931;-71
2023/08/31 00:34:04;;;;;;;7.33;4.63;;;;;;;;;;4997816;28;21329;-71
2023/08/31 00:36:33;;;;;;;6.93;5.30;;;;;;;;;;4993570;28;20453;-72
2023/08/31 00:39:05;;;;;;;6.10;5.60;;;;;;;;;;4995318;28;20428;-72
2023/08/31 00:41:31;;;;;;;5.10;4.40;;;;;;;;;;4990077;28;20451;-72
2023/08/31 00:43:58;;;;;;;6.53;5.40;;;;;;;;;;4995995;28;20442;-72
2023/08/31 00:46:24;;;;;;;6.13;5.20;;;;;;;;;;4996625;28;20462;-71
2023/08/31 00:48:50;;;;;;;4.43;4.07;;;;;;;;;;5000357;28;20435;-72
2023/08/31 00:51:17;;;;;;;5.27;4.80;;;;;;;;;;4994813;28;20443;-72
2023/08/31 00:53:43;;;;;;;4.67;4.27;;;;;;;;;;4996427;28;20435;-71
2023/08/31 00:56:09;;;;;;;5.53;4.83;;;;;;;;;;4999525;28;20454;-72
2023/08/31 00:58:35;;;;;;;6.33;5.73;;;;;;;;;;4994050;28;20421;-71
2023/08/31 01:01:04;;;;;;;4.40;4.20;;;;;;;;;;4990765;28;20467;-71
2023/08/31 01:03:42;;;;;;;5.43;5.03;;;;;;;;;;4996747;28;20454;-72
2023/08/31 01:06:15;;;;;;;6.33;5.13;;;;;;;;;;4996078;28;20440;-71
2023/08/31 01:08:41;;;;;;;4.73;4.53;;;;;;;;;;4995258;28;20977;-71
2023/08/31 01:11:19;;;;;;;5.30;4.70;;;;;;;;;;4994816;28;20459;-71
2023/08/31 01:13:47;;;;;;;6.43;5.67;;;;;;;;;;4995304;28;20500;-71
2023/08/31 01:16:13;;;;;;;7.83;4.80;;;;;;;;;;5002667;28;20444;-71
2023/08/31 01:18:40;;;;;;;6.47;5.07;;;;;;;;;;4989991;28;20511;-71
2023/08/31 01:21:18;;;;;;;5.50;5.20;;;;;;;;;;4992338;28;20475;-72
2023/08/31 01:23:54;;;;;;;5.90;5.47;;;;;;;;;;4992546;28;20436;-71
2023/08/31 01:26:20;;;;;;;5.90;5.63;;;;;;;;;;4994715;28;20503;-72
2023/08/31 01:28:47;;;;;;;5.97;4.67;;;;;;;;;;4993697;28;20461;-72
2023/08/31 01:31:15;;;;;;;6.17;5.73;;;;;;;;;;4995891;28;20467;-72
2023/08/31 01:33:41;;;;;;;7.10;5.83;;;;;;;;;;4990784;28;20471;-72
2023/08/31 01:39:45;;;;;;;7.40;5.30;;;;;;;;;;4979198;28;20443;-72
2023/08/31 01:42:13;;;;;;;6.53;5.73;;;;;;;;;;4976767;28;20447;-72
2023/08/31 01:44:39;;;;;;;6.03;5.37;;;;;;;;;;4979634;28;20475;-71
2023/08/31 01:47:06;;;;;;;7.03;5.20;;;;;;;;;;4980182;28;20448;-71
2023/08/31 01:49:41;;;;;;;5.90;5.40;;;;;;;;;;4979153;28;21090;-71
2023/08/31 01:52:07;;;;;;;6.07;5.67;;;;;;;;;;4975073;28;20521;-72
2023/08/31 01:54:34;;;;;;;6.20;5.70;;;;;;;;;;4979329;28;20766;-72
2023/08/31 01:57:00;;;;;;;5.20;5.00;;;;;;;;;;4972139;28;20597;-72
2023/08/31 01:59:27;;;;;;;6.87;6.27;;;;;;;;;;4977492;28;20468;-71
2023/08/31 02:01:53;;;;;;;7.23;5.70;;;;;;;;;;4972537;28;20452;-71
2023/08/31 02:04:19;;;;;;;6.23;5.60;;;;;;;;;;4977880;28;20425;-71
2023/08/31 02:06:45;;;;;;;5.57;5.37;;;;;;;;;;4974267;28;20525;-71
2023/08/31 02:09:11;;;;;;;6.40;5.83;;;;;;;;;;4979889;28;20444;-71
2023/08/31 02:11:37;;;;;;;6.13;5.60;;;;;;;;;;4993484;28;20481;-71
2023/08/31 02:14:05;;;;;;;6.50;5.83;;;;;;;;;;4999009;28;20534;-71
2023/08/31 02:16:31;;;;;;;6.17;5.70;;;;;;;;;;4990758;28;20456;-71
2023/08/31 02:18:57;;;;;;;5.57;5.27;;;;;;;;;;4989667;28;20468;-71
2023/08/31 02:21:23;;;;;;;5.90;5.60;;;;;;;;;;4997180;28;20529;-71
2023/08/31 02:23:49;;;;;;;5.87;5.47;;;;;;;;;;5003374;28;20930;-71
2023/08/31 02:26:15;;;;;;;5.77;5.37;;;;;;;;;;4997861;28;21225;-71
2023/08/31 02:28:41;;;;;;;5.10;4.80;;;;;;;;;;5004613;28;20944;-72
2023/08/31 02:31:07;;;;;;;7.50;4.93;;;;;;;;;;4995068;28;20457;-71
2023/08/31 02:33:33;;;;;;;5.80;5.33;;;;;;;;;;5010606;28;20439;-73
2023/08/31 02:35:59;;;;;;;5.40;5.00;;;;;;;;;;5004343;28;20965;-71
2023/08/31 02:38:26;;;;;;;5.47;5.17;;;;;;;;;;5010661;28;20466;-71
2023/08/31 02:40:52;;;;;;;6.10;5.60;;;;;;;;;;5008815;28;20803;-70
2023/08/31 02:43:18;;;;;;;5.90;5.17;;;;;;;;;;5003799;28;20506;-71
2023/08/31 02:45:44;;;;;;;5.10;4.90;;;;;;;;;;5002330;28;20459;-71
2023/08/31 02:48:10;;;;;;;5.77;5.40;;;;;;;;;;5005594;28;20454;-71
2023/08/31 02:50:36;;;;;;;5.10;4.90;;;;;;;;;;5001436;28;20465;-72
2023/08/31 02:53:02;;;;;;;5.40;5.00;;;;;;;;;;5004046;28;20447;-72
2023/08/31 02:55:28;;;;;;;4.73;4.47;;;;;;;;;;5004072;28;20614;-72
2023/08/31 02:57:55;;;;;;;5.80;5.40;;;;;;;;;;4999609;28;20443;-72
2023/08/31 03:00:22;;;;;;;5.60;5.10;;;;;;;;;;5002486;28;20435;-71
2023/08/31 03:02:48;;;;;;;4.83;4.63;;;;;;;;;;4992488;28;21074;-72
2023/08/31 03:05:15;;;;;;;5.43;4.53;;;;;;;;;;4993428;28;20436;-72
2023/08/31 03:07:41;;;;;;;5.20;4.73;;;;;;;;;;4996834;28;20451;-71
2023/08/31 03:10:08;;;;;;;4.10;4.00;;;;;;;;;;4990201;28;20464;-71
2023/08/31 03:12:34;;;;;;;5.23;4.40;;;;;;;;;;4989468;28;20443;-71
2023/08/31 03:15:00;;;;;;;5.03;4.83;;;;;;;;;;4994173;28;20497;-71
2023/08/31 03:17:25;;;;;;;4.67;4.30;;;;;;;;;;4992075;28;20455;-71
2023/08/31 03:19:51;;;;;;;7.60;4.70;;;;;;;;;;4993141;28;21060;-72
2023/08/31 03:22:17;;;;;;;6.40;5.20;;;;;;;;;;4995606;28;20460;-72
2023/08/31 03:24:44;;;;;;;4.60;4.40;;;;;;;;;;4985040;28;20467;-73
2023/08/31 03:27:10;;;;;;;4.57;4.37;;;;;;;;;;4999802;28;22260;-71
2023/08/31 03:29:36;;;;;;;4.53;4.33;;;;;;;;;;4993061;28;20525;-70
2023/08/31 03:32:02;;;;;;;4.77;4.47;;;;;;;;;;4992670;28;20481;-73
2023/08/31 03:34:31;;;;;;;7.63;4.70;;;;;;;;;;4990698;28;20935;-71
2023/08/31 03:36:57;;;;;;;3.33;3.30;;;;;;;;;;4990648;28;20494;-72
2023/08/31 03:39:24;;;;;;;6.80;5.30;;;;;;;;;;4995624;28;20503;-71
2023/08/31 03:41:50;;;;;;;4.63;4.27;;;;;;;;;;4997356;28;20535;-72
2023/08/31 03:44:16;;;;;;;5.20;5.00;;;;;;;;;;4993226;28;20972;-72
2023/08/31 03:46:42;;;;;;;5.50;5.10;;;;;;;;;;4992476;28;20470;-71
2023/08/31 03:49:08;;;;;;;5.20;4.80;;;;;;;;;;4995040;28;20437;-72
2023/08/31 03:51:34;;;;;;;5.17;4.67;;;;;;;;;;4993687;28;20562;-72
2023/08/31 03:54:01;;;;;;;6.90;6.17;;;;;;;;;;4999119;28;20534;-72
2023/08/31 03:56:27;;;;;;;5.00;4.77;;;;;;;;;;4995463;28;20460;-71
2023/08/31 03:58:53;;;;;;;4.80;4.60;;;;;;;;;;5001440;28;20420;-71
2023/08/31 04:01:19;;;;;;;5.20;5.00;;;;;;;;;;5001411;28;20457;-71
2023/08/31 04:03:45;;;;;;;4.97;4.73;;;;;;;;;;4997971;28;20470;-72
2023/08/31 04:06:11;;;;;;;5.30;5.10;;;;;;;;;;4991289;28;20454;-73
2023/08/31 04:08:37;;;;;;;5.13;4.93;;;;;;;;;;4996501;28;20427;-71
2023/08/31 04:11:03;;;;;;;5.50;5.30;;;;;;;;;;4995964;28;20475;-72
2023/08/31 04:13:29;;;;;;;5.50;5.30;;;;;;;;;;4995902;28;20476;-72
2023/08/31 04:15:55;;;;;;;5.73;5.43;;;;;;;;;;4997365;28;20810;-72
2023/08/31 04:18:25;;;;;;;6.60;6.30;;;;;;;;;;4999181;28;20898;-72
2023/08/31 04:20:51;;;;;;;6.70;6.30;;;;;;;;;;5002314;28;20447;-72
2023/08/31 04:23:17;;;;;;;5.83;5.53;;;;;;;;;;4994916;28;20430;-72
2023/08/31 04:25:43;;;;;;;7.63;6.93;;;;;;;;;;4987387;28;20528;-72
2023/08/31 04:28:09;;;;;;;6.90;6.50;;;;;;;;;;4994253;28;20196;-72
2023/08/31 04:30:35;;;;;;;7.00;6.53;;;;;;;;;;4992868;28;20479;-71
2023/08/31 04:33:04;;;;;;;7.43;6.73;;;;;;;;;;4993186;28;20463;-72
2023/08/31 04:35:31;;;;;;;7.67;7.17;;;;;;;;;;4996231;28;20434;-72
2023/08/31 04:37:57;;;;;;;7.53;7.13;;;;;;;;;;4995441;28;20456;-72
2023/08/31 04:40:23;;;;;;;8.30;7.80;;;;;;;;;;4993472;28;20475;-71
2023/08/31 04:42:51;;;;;;;7.07;6.67;;;;;;;;;;4995683;28;20824;-72
2023/08/31 04:45:17;;;;;;;8.60;7.90;;;;;;;;;;4994926;28;20460;-72
2023/08/31 04:47:44;;;;;;;8.93;8.23;;;;;;;;;;4988789;28;20489;-72
2023/08/31 04:50:10;;;;;;;8.00;7.33;;;;;;;;;;4998007;28;20770;-71
2023/08/31 04:52:36;;;;;;;9.00;8.27;;;;;;;;;;4994044;28;20492;-72
2023/08/31 04:55:07;;;;;;;8.33;7.73;;;;;;;;;;5003165;28;20457;-72
2023/08/31 04:57:33;;;;;;;9.47;8.40;;;;;;;;;;4999625;28;20509;-71
2023/08/31 04:59:59;;;;;;;9.80;8.80;;;;;;;;;;5000785;28;20925;-71
2023/08/31 05:02:25;;;;;;;9.87;9.27;;;;;;;;;;5005616;28;20971;-71
2023/08/31 05:04:51;;;;;;;10.67;9.90;;;;;;;;;;5005570;28;21461;-71
2023/08/31 05:07:17;;;;;;;10.03;9.43;;;;;;;;;;4983274;28;20535;-72
2023/08/31 05:09:43;;;;;;;10.57;9.67;;;;;;;;;;4987668;28;20542;-71
2023/08/31 05:12:09;;;;;;;9.67;8.97;;;;;;;;;;4993030;28;20914;-71
2023/08/31 05:14:37;;;;;;;9.80;9.00;;;;;;;;;;4994225;28;20471;-71
2023/08/31 05:17:06;;;;;;;9.70;9.03;;;;;;;;;;4996606;28;20454;-72
2023/08/31 05:19:32;;;;;;;10.07;9.37;;;;;;;;;;4993983;28;20430;-70
2023/08/31 05:21:58;;;;;;;9.63;9.03;;;;;;;;;;4997861;28;20436;-71
2023/08/31 05:24:24;;;;;;;9.50;8.80;;;;;;;;;;4997667;28;21382;-71
2023/08/31 05:26:50;;;;;;;8.37;7.87;;;;;;;;;;4991392;28;20460;-71
2023/08/31 05:29:16;;;;;;;8.00;7.30;;;;;;;;;;4991971;28;20462;-72
2023/08/31 05:31:42;;;;;;;9.07;8.40;;;;;;;;;;4994718;28;20980;-71
2023/08/31 05:34:10;;;;;;;7.53;7.03;;;;;;;;;;4991093;28;20513;-72
2023/08/31 05:36:36;;;;;;;7.67;7.03;;;;;;;;;;4990211;28;21146;-72
2023/08/31 05:39:04;;;;;;;7.60;7.30;;;;;;;;;;4997465;28;20435;-72
2023/08/31 05:41:30;;;;;;;8.50;7.90;;;;;;;;;;4995333;28;20439;-72
2023/08/31 05:43:56;;;;;;;8.40;7.77;;;;;;;;;;4993031;28;20427;-74
2023/08/31 05:46:22;;;;;;;7.97;7.37;;;;;;;;;;4992696;28;20487;-71
2023/08/31 05:48:48;;;;;;;7.90;7.30;;;;;;;;;;4996242;28;20639;-71
2023/08/31 05:51:14;;;;;;;7.60;7.20;;;;;;;;;;4994589;28;20562;-71
2023/08/31 05:53:40;;;;;;;8.43;7.97;;;;;;;;;;4995360;28;20463;-70
2023/08/31 05:56:07;;;;;;;7.87;7.23;;;;;;;;;;4994595;28;20968;-71
2023/08/31 05:58:36;;;;;;;7.63;6.90;;;;;;;;;;4995888;28;20486;-72
2023/08/31 06:01:05;;;;;;;6.23;5.73;;;;;;;;;;4999707;28;20442;-72
2023/08/31 06:03:32;;;;;;;6.90;6.53;;;;;;;;;;4997469;28;20939;-72
2023/08/31 06:05:58;;;;;;;6.30;5.80;;;;;;;;;;4998957;28;21174;-71
2023/08/31 06:08:24;;;;;;;5.60;5.33;;;;;;;;;;4996131;28;20825;-72
2023/08/31 06:10:51;;;;;;;5.50;5.30;;;;;;;;;;4999570;28;20464;-72
2023/08/31 06:13:17;;;;;;;6.13;5.83;;;;;;;;;;4998268;28;20439;-73
2023/08/31 06:15:47;;;;;;;6.73;6.30;;;;;;;;;;4999115;28;21421;-72
2023/08/31 06:18:13;;;;;;;5.90;5.53;;;;;;;;;;4995841;28;20827;-73
2023/08/31 06:20:39;;;;;;;6.23;5.73;;;;;;;;;;4995165;28;20536;-72
2023/08/31 06:23:05;;;;;;;6.00;5.70;;;;;;;;;;4996846;28;20439;-71
2023/08/31 06:25:31;;;;;;;6.07;5.50;;;;;;;;;;4994505;28;21122;-73
2023/08/31 06:27:58;;;;;;;5.23;4.93;;;;;;;;;;4993460;28;20994;-71
2023/08/31 06:30:24;;;;;;;4.70;4.50;;;;;;;;;;4996559;28;20474;-71
2023/08/31 06:32:50;;;;;;;4.63;4.53;;;;;;;;;;4994995;28;20934;-72
2023/08/31 06:35:17;;;;;;;5.27;5.07;;;;;;;;;;4995772;28;20765;-72
2023/08/31 06:37:43;;;;;;;4.30;4.10;;;;;;;;;;4992847;28;20443;-72
2023/08/31 06:40:10;;;;;;;3.73;3.60;;;;;;;;;;4996159;28;20435;-71
2023/08/31 06:42:37;;;;;;;5.33;5.03;;;;;;;;;;4998103;28;20439;-72
2023/08/31 06:45:05;;;;;;;3.90;3.80;;;;;;;;;;4997499;28;20810;-73
2023/08/31 06:47:33;;;;;;;4.63;4.43;;;;;;;;;;4991167;28;20513;-73
2023/08/31 06:50:00;;;;;;;4.20;4.00;;;;;;;;;;4996949;28;20474;-73
2023/08/31 06:52:26;;;;;;;4.80;4.37;;;;;;;;;;4995550;28;20662;-72
2023/08/31 06:54:56;;;;;;;3.73;3.60;;;;;;;;;;4993867;28;20451;-71
2023/08/31 06:57:25;;;;;;;4.73;4.43;;;;;;;;;;4994463;28;20435;-72
2023/08/31 06:59:51;;;;;;;4.47;4.10;;;;;;;;;;4995102;28;20861;-71
2023/08/31 07:02:19;;;;;;;6.60;4.23;;;;;;;;;;4994054;28;20526;-72
2023/08/31 07:04:45;;;;;;;4.40;4.10;;;;;;;;;;4997060;28;20441;-71
2023/08/31 07:07:13;;;;;;;3.97;3.77;;;;;;;;;;4993653;28;20439;-71
2023/08/31 07:09:41;;;;;;;3.40;3.30;;;;;;;;;;4993014;28;20819;-72
2023/08/31 07:12:07;;;;;;;5.07;3.57;;;;;;;;;;4994357;28;20790;-72
2023/08/31 07:14:33;;;;;;;3.57;3.43;;;;;;;;;;4995103;28;20949;-73
2023/08/31 07:16:59;;;;;;;4.20;3.50;;;;;;;;;;4991085;28;20515;-72
2023/08/31 07:19:26;;;;;;;3.73;3.60;;;;;;;;;;4990958;28;20518;-72
2023/08/31 07:21:54;;;;;;;3.67;3.40;;;;;;;;;;4991814;28;21265;-71
2023/08/31 07:24:21;;;;;;;4.13;3.93;;;;;;;;;;4994432;28;20440;-71
2023/08/31 07:26:47;;;;;;;4.50;3.93;;;;;;;;;;4993894;28;20423;-72
2023/08/31 07:29:13;;;;;;;3.63;3.53;;;;;;;;;;4994623;28;20808;-71
2023/08/31 07:31:39;;;;;;;3.27;3.17;;;;;;;;;;4995224;28;20469;-72
2023/08/31 07:34:05;;;;;;;3.43;3.13;;;;;;;;;;4995250;28;20513;-72
2023/08/31 07:36:31;;;;;;;4.40;4.00;;;;;;;;;;4990203;28;20431;-70
2023/08/31 07:38:57;;;;;;;3.63;3.50;;;;;;;;;;4993107;28;20451;-71
2023/08/31 07:41:23;;;;;;;3.97;3.60;;;;;;;;;;4997902;28;20435;-72
2023/08/31 07:43:50;;;;;;;2.93;2.83;;;;;;;;;;4990445;28;21146;-71
2023/08/31 07:46:16;;;;;;;3.00;3.00;;;;;;;;;;4991187;28;20479;-71
2023/08/31 07:48:42;;;;;;;3.17;2.97;;;;;;;;;;5000055;28;20479;-70
2023/08/31 07:51:08;;;;;;;3.20;3.10;;;;;;;;;;4999082;28;20467;-72
2023/08/31 07:53:34;;;;;;;3.60;3.43;;;;;;;;;;4987150;28;20502;-72
2023/08/31 07:56:01;;;;;;;2.70;2.70;;;;;;;;;;4996326;28;20448;-73
2023/08/31 07:58:27;;;;;;;2.93;2.73;;;;;;;;;;5001175;28;20505;-78
2023/08/31 08:00:54;;;;;;;4.83;4.60;;;;;;;;;;4998417;28;20443;-71
2023/08/31 08:03:21;;;;;;;2.40;2.40;;;;;;;;;;4992945;28;20435;-75
2023/08/31 08:05:47;;;;;;;2.90;2.90;;;;;;;;;;5008438;28;20455;-72
2023/08/31 08:08:13;;;;;;;2.83;2.63;;;;;;;;;;4994852;28;20497;-71
2023/08/31 08:10:39;;;;;;;3.00;2.80;;;;;;;;;;4994045;28;20521;-72
2023/08/31 08:13:05;;;;;;;3.67;3.57;;;;;;;;;;4989576;28;20498;-71
2023/08/31 08:15:31;;;;;;;3.70;3.40;;;;;;;;;;4991851;28;20859;-72
2023/08/31 08:17:57;;;;;;;3.43;3.10;;;;;;;;;;4994740;28;20859;-72
2023/08/31 08:20:23;;;;;;;3.00;2.90;;;;;;;;;;4993692;28;20444;-72
2023/08/31 08:22:52;;;;;;;3.30;3.10;;;;;;;;;;4995056;28;20451;-73
2023/08/31 08:25:19;;;;;;;3.10;2.93;;;;;;;;;;4993846;28;20534;-73
2023/08/31 08:27:45;;;;;;;3.30;3.10;;;;;;;;;;4992733;28;20519;-72
2023/08/31 08:30:11;;;;;;;3.70;3.03;;;;;;;;;;4992587;28;20471;-72
2023/08/31 08:32:36;;;;;;;2.97;2.77;;;;;;;;;;4996740;28;20461;-72
2023/08/31 08:35:03;;;;;;;3.13;2.93;;;;;;;;;;4988080;28;20455;-71
2023/08/31 08:37:29;;;;;;;2.93;2.83;;;;;;;;;;4994901;28;20820;-72
2023/08/31 08:39:55;;;;;;;2.73;2.63;;;;;;;;;;4985020;28;20435;-72
2023/08/31 08:42:24;;;;;;;3.47;3.27;;;;;;;;;;4998121;28;20445;-71
2023/08/31 08:44:50;;;;;;;3.27;3.07;;;;;;;;;;5002305;28;20461;-71
2023/08/31 08:47:17;;;;;;;3.17;2.97;;;;;;;;;;4994380;28;20436;-71
2023/08/31 08:49:43;;;;;;;3.33;3.03;;;;;;;;;;4995652;28;20490;-75
2023/08/31 08:52:10;;;;;;;3.50;3.30;;;;;;;;;;4996867;28;21005;-72
2023/08/31 08:54:38;;;;;;;3.70;3.50;;;;;;;;;;5004758;28;20960;-73
2023/08/31 08:57:05;;;;;;;2.93;2.70;;;;;;;;;;4999443;28;20480;-74
2023/08/31 08:59:31;;;;;;;2.30;2.20;;;;;;;;;;4990371;28;20526;-72
2023/08/31 09:01:57;;;;;;;2.83;2.70;;;;;;;;;;4989952;28;20467;-71
2023/08/31 09:04:23;;;;;;;3.00;2.70;;;;;;;;;;4989998;28;20879;-74
2023/08/31 09:06:52;;;;;;;2.73;2.73;;;;;;;;;;4989111;28;20986;-73
2023/08/31 09:09:19;;;;;;;2.57;2.50;;;;;;;;;;4987395;28;20430;-73
2023/08/31 09:11:45;;;;;;;2.63;2.53;;;;;;;;;;4988649;28;23855;-72
2023/08/31 09:14:20;;;;;;;2.63;2.50;;;;;;;;;;4986356;28;20637;-71
2023/08/31 09:16:50;;;;;;;3.50;3.20;;;;;;;;;;4988129;28;20489;-72
2023/08/31 09:19:20;;;;;;;3.53;3.20;;;;;;;;;;4988320;28;20451;-71
2023/08/31 09:21:47;;;;;;;2.77;2.53;;;;;;;;;;4984991;28;20867;-72
2023/08/31 09:24:13;;;;;;;2.80;2.63;;;;;;;;;;4989336;28;20451;-71
2023/08/31 09:26:40;;;;;;;2.40;2.40;;;;;;;;;;4987798;28;20538;-72
2023/08/31 09:29:07;;;;;;;3.30;3.20;;;;;;;;;;4987690;28;21211;-72
2023/08/31 09:31:33;;;;;;;2.83;2.73;;;;;;;;;;4988001;28;21065;-73
2023/08/31 09:33:59;;;;;;;2.87;2.67;;;;;;;;;;4991778;28;20442;-72
2023/08/31 09:36:25;;;;;;;2.77;2.67;;;;;;;;;;4988410;28;20966;-72
2023/08/31 09:38:51;;;;;;;2.40;2.30;;;;;;;;;;4990817;28;20520;-72
2023/08/31 09:41:17;;;;;;;2.47;2.37;;;;;;;;;;4989467;28;20973;-72
2023/08/31 09:43:43;;;;;;;2.93;2.73;;;;;;;;;;4986802;28;20472;-73
2023/08/31 09:46:10;;;;;;;2.80;2.60;;;;;;;;;;4988902;28;20486;-72
2023/08/31 09:48:37;;;;;;;2.43;2.33;;;;;;;;;;4987544;28;20454;-74
2023/08/31 09:51:04;;;;;;;2.47;2.37;;;;;;;;;;4995364;28;20458;-72
2023/08/31 09:53:31;;;;;;;2.27;2.27;;;;;;;;;;4987623;28;20825;-74
2023/08/31 09:55:57;;;;;;;4.00;3.80;;;;;;;;;;4992136;28;20443;-76
2023/08/31 09:58:24;;;;;;;2.47;2.37;;;;;;;;;;4989777;28;20491;-73
2023/08/31 10:00:51;;;;;;;2.10;2.00;;;;;;;;;;4984866;28;20438;-72
2023/08/31 10:03:18;;;;;;;2.73;2.53;;;;;;;;;;4989985;28;20445;-71
2023/08/31 10:05:45;;;;;;;2.17;2.10;;;;;;;;;;4993405;28;20663;-71
2023/08/31 10:08:11;;;;;;;2.10;2.00;;;;;;;;;;4986302;28;20501;-72
2023/08/31 10:10:39;;;;;;;1.90;1.80;;;;;;;;;;4990737;28;20477;-72
2023/08/31 10:13:05;;;;;;;2.20;2.10;;;;;;;;;;4989538;28;21264;-73
2023/08/31 10:15:39;;;;;;;2.03;2.03;;;;;;;;;;4993200;28;20448;-71
2023/08/31 10:18:06;;;;;;;3.27;2.10;;;;;;;;;;4987207;28;21429;-72
2023/08/31 10:20:33;;;;;;;1.83;1.73;;;;;;;;;;4986898;28;20447;-73
2023/08/31 10:23:00;;;;;;;1.93;1.83;;;;;;;;;;4993173;28;20438;-72
2023/08/31 10:25:47;;;;;;;2.70;2.60;;;;;;;;;;4990545;28;20994;-72
2023/08/31 10:28:20;;;;;;;2.00;1.90;;;;;;;;;;4990422;28;20493;-71
2023/08/31 10:31:05;;;;;;;2.40;2.20;;;;;;;;;;4990927;28;20502;-73
2023/08/31 10:33:43;;;;;;;4.53;4.03;;;;;;;;;;4989531;28;20447;-72
2023/08/31 10:36:15;;;;;;;2.77;2.33;;;;;;;;;;4987973;28;20432;-70
2023/08/31 10:38:42;;;;;;;6.00;3.13;;;;;;;;;;4984869;28;20513;-72
2023/08/31 10:41:08;;;;;;;1.90;1.83;;;;;;;;;;4992261;28;20546;-72
2023/08/31 10:43:51;;;;;;;2.50;2.40;;;;;;;;;;4988750;28;20530;-72
2023/08/31 10:46:33;;;;;;;1.80;1.80;;;;;;;;;;4987850;28;21009;-72
2023/08/31 10:49:14;;;;;;;2.70;2.50;;;;;;;;;;4988568;28;20443;-72
2023/08/31 10:51:44;;;;;;;2.30;2.20;;;;;;;;;;4982060;28;20475;-73
2023/08/31 10:54:10;;;;;;;3.60;3.30;;;;;;;;;;4984872;28;20995;-75
2023/08/31 10:56:55;;;;;;;13.30;3.20;;;;;;;;;;4988965;28;20505;-73
2023/08/31 10:59:22;;;;;;;3.10;2.30;;;;;;;;;;4992311;28;20474;-74
2023/08/31 11:02:04;;;;;;;2.10;2.00;;;;;;;;;;4991407;28;20475;-73
2023/08/31 11:04:52;;;;;;;2.20;2.10;;;;;;;;;;4988304;28;20439;-72
2023/08/31 11:07:19;;;;;;;3.60;2.50;;;;;;;;;;4987706;28;20454;-73
2023/08/31 11:09:46;;;;;;;2.90;2.70;;;;;;;;;;4980908;28;20522;-71
2023/08/31 11:12:13;;;;;;;2.20;1.80;;;;;;;;;;4989789;28;20938;-72
2023/08/31 11:14:39;;;;;;;2.40;2.30;;;;;;;;;;4989563;28;20954;-73
2023/08/31 11:17:05;;;;;;;2.77;2.67;;;;;;;;;;4992622;28;20537;-73
2023/08/31 11:19:34;;;;;;;3.77;3.57;;;;;;;;;;4985831;28;20462;-71
2023/08/31 11:22:04;;;;;;;2.20;2.10;;;;;;;;;;4989030;28;20562;-73
2023/08/31 11:24:31;;;;;;;4.80;4.40;;;;;;;;;;4997012;28;20466;-73
2023/08/31 11:26:57;;;;;;;3.20;3.00;;;;;;;;;;5002407;28;20795;-73
2023/08/31 11:29:23;;;;;;;2.33;2.20;;;;;;;;;;4996370;28;21042;-72
2023/08/31 11:31:49;;;;;;;2.13;2.03;;;;;;;;;;4994374;28;20473;-71
2023/08/31 11:34:16;;;;;;;2.03;2.03;;;;;;;;;;4998865;28;20447;-71
2023/08/31 11:36:42;;;;;;;6.00;5.67;;;;;;;;;;4994625;28;20450;-72
2023/08/31 11:39:10;;;;;;;2.20;2.10;;;;;;;;;;4996176;28;20451;-71
2023/08/31 11:41:40;;;;;;;5.73;2.00;;;;;;;;;;4998541;28;20447;-76
2023/08/31 11:44:07;;;;;;;2.03;2.00;;;;;;;;;;4994782;28;20965;-75
2023/08/31 11:46:33;;;;;;;5.17;4.80;;;;;;;;;;4999070;28;20479;-72
2023/08/31 11:49:04;;;;;;;2.27;2.17;;;;;;;;;;4993564;28;20996;-72
2023/08/31 11:51:30;;;;;;;2.30;1.90;;;;;;;;;;4998269;28;21100;-73
2023/08/31 11:53:59;;;;;;;2.17;2.07;;;;;;;;;;4992536;28;20462;-71
2023/08/31 11:56:25;;;;;;;2.47;2.37;;;;;;;;;;4992184;28;20443;-75
2023/08/31 11:58:52;;;;;;;4.17;2.30;;;;;;;;;;5001212;28;20455;-75
2023/08/31 12:01:19;;;;;;;2.60;2.40;;;;;;;;;;5006450;28;20431;-78
2023/08/31 12:03:45;;;;;;;3.33;2.87;;;;;;;;;;4999227;28;20897;-76
2023/08/31 12:06:11;;;;;;;2.23;2.20;;;;;;;;;;4994120;28;20441;-69
2023/08/31 12:08:38;;;;;;;2.30;2.30;;;;;;;;;;4992561;28;20442;-72
2023/08/31 12:11:06;;;;;;;3.03;2.53;;;;;;;;;;4993025;28;20471;-71
2023/08/31 12:13:32;;;;;;;2.87;2.77;;;;;;;;;;4997692;28;20454;-70
2023/08/31 12:15:58;;;;;;;2.93;2.73;;;;;;;;;;4997529;28;20535;-71
2023/08/31 12:18:24;;;;;;;2.63;2.53;;;;;;;;;;4990189;28;20451;-71
2023/08/31 12:20:52;;;;;;;2.30;2.30;;;;;;;;;;4999431;28;20875;-72
2023/08/31 12:23:21;;;;;;;2.70;2.50;;;;;;;;;;5002473;28;20590;-71
2023/08/31 12:25:48;;;;;;;2.73;2.03;;;;;;;;;;5001366;28;20454;-72
2023/08/31 12:28:14;;;;;;;1.93;1.63;;;;;;;;;;4998386;28;20451;-71
2023/08/31 12:30:43;;;;;;;3.73;3.53;;;;;;;;;;4995319;28;20969;-72
2023/08/31 12:33:10;;;;;;;2.40;2.10;;;;;;;;;;4999571;28;20438;-77
2023/08/31 12:35:36;;;;;;;2.10;2.00;;;;;;;;;;5001166;28;20837;-76
2023/08/31 12:38:03;;;;;;;1.90;1.80;;;;;;;;;;4999445;28;20501;-73
2023/08/31 12:40:29;;;;;;;10.63;9.60;;;;;;;;;;5000384;28;20447;-74
2023/08/31 12:42:58;;;;;;;2.17;2.07;;;;;;;;;;5002676;28;20466;-73
2023/08/31 12:45:25;;;;;;;1.93;1.93;;;;;;;;;;4998526;28;21074;-74
2023/08/31 12:47:51;;;;;;;3.60;2.03;;;;;;;;;;5003090;28;20443;-73
2023/08/31 12:50:17;;;;;;;1.83;1.73;;;;;;;;;;5000427;28;20984;-73
2023/08/31 12:52:46;;;;;;;2.07;2.07;;;;;;;;;;5005889;28;20465;-73
2023/08/31 12:55:13;;;;;;;2.33;2.23;;;;;;;;;;4999753;28;20451;-76
2023/08/31 12:57:39;;;;;;;2.03;1.90;;;;;;;;;;5002765;28;20778;-74
2023/08/31 13:00:06;;;;;;;2.37;2.37;;;;;;;;;;4991482;28;20435;-73
2023/08/31 13:02:32;;;;;;;2.07;1.97;;;;;;;;;;4997003;28;20436;-73
2023/08/31 13:04:58;;;;;;;2.20;2.20;;;;;;;;;;4999783;28;20443;-74
2023/08/31 13:07:24;;;;;;;3.30;2.40;;;;;;;;;;4993222;28;20472;-75
2023/08/31 13:09:50;;;;;;;2.33;2.10;;;;;;;;;;4998592;28;20679;-73
2023/08/31 13:12:16;;;;;;;1.90;1.90;;;;;;;;;;4997730;28;20598;-73
2023/08/31 13:14:44;;;;;;;2.57;2.47;;;;;;;;;;5004226;28;20426;-72
2023/08/31 13:17:10;;;;;;;2.63;2.30;;;;;;;;;;4993905;28;20455;-72
2023/08/31 13:19:36;;;;;;;2.90;2.80;;;;;;;;;;5003083;28;20983;-72
2023/08/31 13:22:02;;;;;;;4.43;3.60;;;;;;;;;;4999988;28;20455;-71
2023/08/31 13:24:28;;;;;;;2.40;2.27;;;;;;;;;;5000064;28;21355;-71
2023/08/31 13:26:54;;;;;;;2.60;2.43;;;;;;;;;;4997749;28;21216;-71
2023/08/31 13:29:21;;;;;;;5.70;3.23;;;;;;;;;;4994958;28;20446;-72
2023/08/31 13:31:47;;;;;;;2.33;2.17;;;;;;;;;;4997270;28;20631;-73
2023/08/31 13:34:15;;;;;;;3.13;2.67;;;;;;;;;;4995001;28;20474;-70
2023/08/31 13:36:41;;;;;;;3.47;3.27;;;;;;;;;;4998211;28;20432;-72
2023/08/31 13:39:07;;;;;;;3.10;2.80;;;;;;;;;;5001247;28;20424;-73
2023/08/31 13:41:33;;;;;;;2.80;2.60;;;;;;;;;;5001044;28;20482;-74
2023/08/31 13:43:59;;;;;;;2.63;2.53;;;;;;;;;;4978934;28;20446;-72
2023/08/31 13:46:25;;;;;;;5.27;2.57;;;;;;;;;;4997402;28;20456;-72
2023/08/31 13:48:51;;;;;;;4.40;4.20;;;;;;;;;;5000333;28;20512;-72
2023/08/31 13:51:17;;;;;;;3.23;3.07;;;;;;;;;;4996943;28;21050;-73
2023/08/31 13:53:43;;;;;;;3.07;2.83;;;;;;;;;;4996140;28;20811;-74
2023/08/31 13:56:09;;;;;;;2.60;2.50;;;;;;;;;;4989942;28;20450;-73
2023/08/31 13:58:35;;;;;;;4.93;4.13;;;;;;;;;;4994794;28;20451;-75
2023/08/31 14:01:03;;;;;;;2.10;2.00;;;;;;;;;;4999001;28;20460;-73
2023/08/31 14:03:29;;;;;;;2.30;2.20;;;;;;;;;;4993573;28;20774;-73
2023/08/31 14:05:55;;;;;;;3.80;3.60;;;;;;;;;;4995537;28;20534;-77
2023/08/31 14:08:21;;;;;;;1.80;1.70;;;;;;;;;;4992401;28;20578;-73
2023/08/31 14:10:47;;;;;;;5.43;3.57;;;;;;;;;;4989888;28;21037;-73
2023/08/31 14:13:13;;;;;;;2.03;1.93;;;;;;;;;;4989085;28;20480;-73
2023/08/31 14:15:47;;;;;;;2.50;2.40;;;;;;;;;;4993280;28;20474;-73
2023/08/31 14:18:14;;;;;;;1.97;1.87;;;;;;;;;;4992301;28;20813;-72
2023/08/31 14:20:40;;;;;;;2.30;2.20;;;;;;;;;;4992444;28;20454;-75
2023/08/31 14:23:06;;;;;;;2.17;2.00;;;;;;;;;;4995910;28;20573;-73
2023/08/31 14:25:38;;;;;;;2.00;2.00;;;;;;;;;;4990744;28;20479;-73
2023/08/31 14:28:05;;;;;;;2.47;2.23;;;;;;;;;;4995604;28;20448;-72
2023/08/31 14:30:31;;;;;;;1.93;1.83;;;;;;;;;;4990775;28;20471;-72
2023/08/31 14:32:57;;;;;;;1.97;1.87;;;;;;;;;;4991798;28;20440;-72
2023/08/31 14:35:23;;;;;;;2.63;2.50;;;;;;;;;;4991636;28;20521;-74
2023/08/31 14:37:52;;;;;;;3.50;3.40;;;;;;;;;;4998402;28;20625;-73
2023/08/31 14:40:18;;;;;;;3.50;3.40;;;;;;;;;;4992617;28;20653;-73
2023/08/31 14:42:44;;;;;;;6.53;3.87;;;;;;;;;;4993834;28;20546;-73
2023/08/31 14:45:10;;;;;;;6.80;6.20;;;;;;;;;;4994565;28;20684;-74
2023/08/31 14:47:36;;;;;;;4.53;4.33;;;;;;;;;;4996501;28;20463;-75